Time;durP1;ratioP1;P1;durP2;ratioP2;P2;SDS_P1;SDS_P2;PMS_P1;PMS_P2;Temp;Humidity;BMP_temperature;BMP_pressure;BME280_temperature;BME280_humidity;BME280_pressure;Samples;Min_cycle;Max_cycle;Signal;HPM_P1;HPM_P2
2023/03/09 00:01:01;;;;;;;;;;;;;;;;;;4987475;28;20013;-71
2023/03/09 00:03:26;;;;;;;;;;;;;;;;;;4990137;28;19918;-71
2023/03/09 00:05:52;;;;;;;;;;;;;;;;;;4990397;28;20062;-71
2023/03/09 00:08:17;;;;;;;;;;;;;;;;;;4986300;28;19956;-72
2023/03/09 00:10:42;;;;;;;;;;;;;;;;;;4973387;28;20008;-71
2023/03/09 00:13:08;;;;;;;;;;;;;;;;;;4981374;28;20451;-72
2023/03/09 00:15:33;;;;;;;;;;;;;;;;;;4989611;28;19928;-73
2023/03/09 00:17:59;;;;;;;;;;;;;;;;;;4974934;28;19921;-73
2023/03/09 00:20:24;;;;;;;;;;;;;;;;;;4985637;28;19921;-72
2023/03/09 00:22:49;;;;;;;;;;;;;;;;;;4984702;28;19931;-71
2023/03/09 00:25:15;;;;;;;;;;;;;;;;;;4982039;28;20665;-72
2023/03/09 00:27:41;;;;;;;;;;;;;;;;;;4988107;28;19917;-72
2023/03/09 00:30:06;;;;;;;;;;;;;;;;;;4982251;28;20049;-72
2023/03/09 00:32:32;;;;;;;;;;;;;;;;;;4974337;28;19955;-72
2023/03/09 00:34:57;;;;;;;;;;;;;;;;;;4994254;28;19921;-72
2023/03/09 00:37:22;;;;;;;;;;;;;;;;;;4988745;28;19952;-72
2023/03/09 00:39:48;;;;;;;;;;;;;;;;;;4986483;28;20395;-71
2023/03/09 00:42:14;;;;;;;;;;;;;;;;;;4984527;28;20319;-73
2023/03/09 00:44:41;;;;;;;;;;;;;;;;;;4972358;28;19913;-72
2023/03/09 00:47:07;;;;;;;;;;;;;;;;;;4987662;28;20353;-72
2023/03/09 00:49:32;;;;;;;;;;;;;;;;;;4988288;28;20419;-71
2023/03/09 00:51:58;;;;;;;;;;;;;;;;;;4990734;28;20390;-72
2023/03/09 00:54:23;;;;;;;;;;;;;;;;;;4972651;28;19918;-71
2023/03/09 00:56:48;;;;;;;;;;;;;;;;;;4984312;28;19922;-72
2023/03/09 00:59:14;;;;;;;;;;;;;;;;;;4976806;28;19918;-72
2023/03/09 01:01:39;;;;;;;;;;;;;;;;;;4986721;28;19990;-71
2023/03/09 01:04:05;;;;;;;;;;;;;;;;;;4972632;28;20336;-72
2023/03/09 01:06:30;;;;;;;;;;;;;;;;;;4985115;28;19922;-72
2023/03/09 01:08:55;;;;;;;;;;;;;;;;;;4984658;28;19918;-72
2023/03/09 01:11:21;;;;;;;;;;;;;;;;;;4985613;28;19925;-72
2023/03/09 01:13:46;;;;;;;;;;;;;;;;;;4984473;28;19924;-72
2023/03/09 01:16:12;;;;;;;;;;;;;;;;;;4982366;28;19993;-72
2023/03/09 01:18:37;;;;;;;;;;;;;;;;;;4986160;28;20398;-72
2023/03/09 01:21:03;;;;;;;;;;;;;;;;;;4983874;28;20191;-72
2023/03/09 01:23:31;;;;;;;;;;;;;;;;;;4983874;28;19948;-72
2023/03/09 01:25:57;;;;;;;;;;;;;;;;;;4968788;28;20353;-72
2023/03/09 01:28:22;;;;;;;;;;;;;;;;;;4989599;28;19921;-72
2023/03/09 01:30:47;;;;;;;;;;;;;;;;;;4985949;28;21290;-73
2023/03/09 01:33:12;;;;;;;;;;;;;;;;;;4985715;28;19917;-72
2023/03/09 01:35:38;;;;;;;;;;;;;;;;;;4972186;28;19928;-72
2023/03/09 01:38:03;;;;;;;;;;;;;;;;;;4985130;28;20016;-71
2023/03/09 01:40:31;;;;;;;;;;;;;;;;;;4982999;28;19921;-72
2023/03/09 01:42:56;;;;;;;;;;;;;;;;;;4970849;28;19926;-72
2023/03/09 01:45:21;;;;;;;;;;;;;;;;;;4971639;28;20376;-71
2023/03/09 01:47:47;;;;;;;;;;;;;;;;;;4983102;28;19922;-71
2023/03/09 01:50:12;;;;;;;;;;;;;;;;;;4983358;28;19921;-74
2023/03/09 01:52:38;;;;;;;;;;;;;;;;;;4987407;28;21460;-74
2023/03/09 01:55:03;;;;;;;;;;;;;;;;;;4984663;28;19917;-71
2023/03/09 01:57:29;;;;;;;;;;;;;;;;;;4984964;28;21343;-72
2023/03/09 01:59:54;;;;;;;;;;;;;;;;;;4984479;28;19960;-74
2023/03/09 02:02:19;;;;;;;;;;;;;;;;;;4982547;28;20055;-74
2023/03/09 02:04:45;;;;;;;;;;;;;;;;;;4989828;28;20024;-72
2023/03/09 02:07:10;;;;;;;;;;;;;;;;;;4984057;28;19922;-72
2023/03/09 02:09:38;;;;;;;;;;;;;;;;;;4984514;28;20399;-72
2023/03/09 02:12:04;;;;;;;;;;;;;;;;;;4972018;28;20472;-72
2023/03/09 02:14:29;;;;;;;;;;;;;;;;;;4990943;28;19956;-72
2023/03/09 02:16:55;;;;;;;;;;;;;;;;;;4993115;28;20307;-72
2023/03/09 02:19:20;;;;;;;;;;;;;;;;;;4976151;28;20005;-72
2023/03/09 02:21:46;;;;;;;;;;;;;;;;;;5008125;28;19925;-72
2023/03/09 02:24:11;;;;;;;;;;;;;;;;;;4980476;28;19955;-72
2023/03/09 02:26:37;;;;;;;;;;;;;;;;;;4975242;28;19921;-72
2023/03/09 02:29:04;;;;;;;;;;;;;;;;;;4995054;28;19957;-72
2023/03/09 02:31:30;;;;;;;;;;;;;;;;;;4986193;28;20037;-72
2023/03/09 02:33:55;;;;;;;;;;;;;;;;;;4993726;28;19921;-72
2023/03/09 02:36:21;;;;;;;;;;;;;;;;;;4994934;28;20372;-73
2023/03/09 02:38:48;;;;;;;;;;;;;;;;;;4994198;28;20465;-72
2023/03/09 02:41:16;;;;;;;;;;;;;;;;;;4998091;28;20005;-72
2023/03/09 02:43:41;;;;;;;;;;;;;;;;;;4997645;28;19921;-72
2023/03/09 02:46:07;;;;;;;;;;;;;;;;;;5000020;28;20400;-72
2023/03/09 02:48:32;;;;;;;;;;;;;;;;;;4985821;28;19917;-73
2023/03/09 02:50:58;;;;;;;;;;;;;;;;;;5000735;28;19914;-72
2023/03/09 02:53:23;;;;;;;;;;;;;;;;;;5001331;28;19921;-72
2023/03/09 02:55:48;;;;;;;;;;;;;;;;;;5001365;28;19913;-72
2023/03/09 02:58:14;;;;;;;;;;;;;;;;;;5001566;28;19921;-72
2023/03/09 03:00:39;;;;;;;;;;;;;;;;;;4998624;28;20535;-72
2023/03/09 03:03:05;;;;;;;;;;;;;;;;;;4984144;28;19960;-72
2023/03/09 03:05:30;;;;;;;;;;;;;;;;;;4986401;28;19926;-72
2023/03/09 03:07:56;;;;;;;;;;;;;;;;;;5002119;28;19991;-72
2023/03/09 03:10:21;;;;;;;;;;;;;;;;;;4986187;28;19921;-72
2023/03/09 03:12:47;;;;;;;;;;;;;;;;;;5001462;28;19929;-72
2023/03/09 03:15:12;;;;;;;;;;;;;;;;;;4997386;28;20112;-71
2023/03/09 03:17:38;;;;;;;;;;;;;;;;;;4999954;28;19927;-72
2023/03/09 03:20:05;;;;;;;;;;;;;;;;;;4984295;28;19917;-72
2023/03/09 03:22:30;;;;;;;;;;;;;;;;;;4996234;28;20245;-72
2023/03/09 03:24:55;;;;;;;;;;;;;;;;;;4996327;28;19967;-72
2023/03/09 03:27:21;;;;;;;;;;;;;;;;;;4981750;28;20079;-72
2023/03/09 03:29:46;;;;;;;;;;;;;;;;;;4993833;28;20436;-72
2023/03/09 03:32:12;;;;;;;;;;;;;;;;;;4995213;28;19928;-72
2023/03/09 03:34:37;;;;;;;;;;;;;;;;;;4998145;28;19924;-72
2023/03/09 03:37:02;;;;;;;;;;;;;;;;;;4980471;28;19921;-72
2023/03/09 03:39:31;;;;;;;;;;;;;;;;;;4996345;28;20196;-71
2023/03/09 03:41:56;;;;;;;;;;;;;;;;;;5000262;28;20157;-72
2023/03/09 03:44:21;;;;;;;;;;;;;;;;;;4978924;28;19925;-72
2023/03/09 03:46:47;;;;;;;;;;;;;;;;;;4987597;28;19921;-72
2023/03/09 03:52:29;;;;;;;;;;;;;;;;;;4997347;28;19923;-72
2023/03/09 03:54:54;;;;;;;;;;;;;;;;;;4998638;28;19917;-71
2023/03/09 03:57:22;;;;;;;;;;;;;;;;;;4996336;28;20373;-71
2023/03/09 03:59:48;;;;;;;;;;;;;;;;;;4976116;28;19918;-73
2023/03/09 04:02:13;;;;;;;;;;;;;;;;;;4988679;28;19929;-72
2023/03/09 04:04:38;;;;;;;;;;;;;;;;;;4986057;28;19949;-71
2023/03/09 04:07:06;;;;;;;;;;;;;;;;;;4990996;28;19946;-71
2023/03/09 04:09:31;;;;;;;;;;;;;;;;;;4974860;28;19949;-72
2023/03/09 04:11:57;;;;;;;;;;;;;;;;;;4979553;28;19921;-71
2023/03/09 04:14:22;;;;;;;;;;;;;;;;;;4976463;28;20016;-72
2023/03/09 04:16:48;;;;;;;;;;;;;;;;;;4994484;28;19924;-72
2023/03/09 04:19:13;;;;;;;;;;;;;;;;;;4975279;28;19928;-72
2023/03/09 04:21:38;;;;;;;;;;;;;;;;;;4964004;28;20365;-72
2023/03/09 04:24:04;;;;;;;;;;;;;;;;;;4993549;28;20283;-72
2023/03/09 04:26:32;;;;;;;;;;;;;;;;;;4990771;28;19917;-72
2023/03/09 04:28:57;;;;;;;;;;;;;;;;;;4975775;28;19919;-71
2023/03/09 04:31:26;;;;;;;;;;;;;;;;;;4988249;28;20040;-71
2023/03/09 04:33:51;;;;;;;;;;;;;;;;;;4992509;28;19917;-71
2023/03/09 04:36:16;;;;;;;;;;;;;;;;;;4978700;28;19913;-71
2023/03/09 04:38:42;;;;;;;;;;;;;;;;;;4974989;28;20009;-72
2023/03/09 04:41:07;;;;;;;;;;;;;;;;;;4976095;28;19920;-70
2023/03/09 04:43:32;;;;;;;;;;;;;;;;;;4986749;28;19925;-72
2023/03/09 04:46:00;;;;;;;;;;;;;;;;;;4987902;28;19959;-70
2023/03/09 04:48:25;;;;;;;;;;;;;;;;;;4981611;28;19917;-71
2023/03/09 04:50:51;;;;;;;;;;;;;;;;;;4988011;28;19933;-71
2023/03/09 04:53:16;;;;;;;;;;;;;;;;;;4986184;28;19997;-71
2023/03/09 04:55:44;;;;;;;;;;;;;;;;;;4987409;28;20684;-70
2023/03/09 04:58:09;;;;;;;;;;;;;;;;;;4981453;28;20003;-70
2023/03/09 05:00:35;;;;;;;;;;;;;;;;;;4982686;28;20000;-71
2023/03/09 05:03:00;;;;;;;;;;;;;;;;;;4987128;28;20020;-71
2023/03/09 05:05:28;;;;;;;;;;;;;;;;;;4974064;28;20002;-71
2023/03/09 05:07:56;;;;;;;;;;;;;;;;;;4990203;28;19939;-71
2023/03/09 05:10:21;;;;;;;;;;;;;;;;;;4992531;28;19922;-70
2023/03/09 05:12:46;;;;;;;;;;;;;;;;;;4987383;28;20710;-71
2023/03/09 05:15:11;;;;;;;;;;;;;;;;;;4974040;28;20196;-71
2023/03/09 05:17:40;;;;;;;;;;;;;;;;;;4986861;28;19917;-71
2023/03/09 05:20:08;;;;;;;;;;;;;;;;;;4984515;28;19996;-71
2023/03/09 05:22:33;;;;;;;;;;;;;;;;;;4985282;28;19967;-70
2023/03/09 05:24:59;;;;;;;;;;;;;;;;;;4983962;28;19925;-70
2023/03/09 05:27:26;;;;;;;;;;;;;;;;;;4995567;28;19994;-73
2023/03/09 05:29:54;;;;;;;;;;;;;;;;;;4971738;28;20001;-72
2023/03/09 05:32:20;;;;;;;;;;;;;;;;;;4970731;28;19930;-71
2023/03/09 05:34:45;;;;;;;;;;;;;;;;;;4973001;28;20230;-70
2023/03/09 05:37:10;;;;;;;;;;;;;;;;;;4988984;28;19922;-71
2023/03/09 05:39:36;;;;;;;;;;;;;;;;;;4984773;28;20347;-71
2023/03/09 05:42:01;;;;;;;;;;;;;;;;;;4984477;28;20525;-70
2023/03/09 05:44:26;;;;;;;;;;;;;;;;;;4983427;28;19925;-72
2023/03/09 05:50:08;;;;;;;;;;;;;;;;;;4983799;28;19939;-71
2023/03/09 05:52:34;;;;;;;;;;;;;;;;;;4985779;28;19918;-71
2023/03/09 05:54:59;;;;;;;;;;;;;;;;;;4987537;28;19921;-71
2023/03/09 05:57:24;;;;;;;;;;;;;;;;;;4970274;28;20312;-72
2023/03/09 05:59:49;;;;;;;;;;;;;;;;;;4968848;28;20051;-71
2023/03/09 06:02:17;;;;;;;;;;;;;;;;;;4985118;28;19921;-71
2023/03/09 06:04:43;;;;;;;;;;;;;;;;;;4983710;28;19968;-72
2023/03/09 06:07:08;;;;;;;;;;;;;;;;;;4985360;28;20639;-70
2023/03/09 06:09:33;;;;;;;;;;;;;;;;;;4986318;28;20273;-71
2023/03/09 06:12:01;;;;;;;;;;;;;;;;;;4982178;28;19921;-71
2023/03/09 06:14:26;;;;;;;;;;;;;;;;;;4986303;28;20368;-70
2023/03/09 06:16:52;;;;;;;;;;;;;;;;;;4984188;28;20424;-72
2023/03/09 06:19:20;;;;;;;;;;;;;;;;;;4981525;28;19924;-72
2023/03/09 06:21:50;;;;;;;;;;;;;;;;;;4984276;28;21395;-70
2023/03/09 06:24:18;;;;;;;;;;;;;;;;;;4984374;28;19927;-70
2023/03/09 06:26:43;;;;;;;;;;;;;;;;;;4985313;28;20291;-70
2023/03/09 06:29:12;;;;;;;;;;;;;;;;;;4982373;28;19918;-70
2023/03/09 06:31:37;;;;;;;;;;;;;;;;;;4985162;28;19930;-70
2023/03/09 06:34:02;;;;;;;;;;;;;;;;;;4968124;28;19932;-69
2023/03/09 06:36:27;;;;;;;;;;;;;;;;;;4970268;28;20005;-70
2023/03/09 06:38:55;;;;;;;;;;;;;;;;;;4985049;28;20078;-70
2023/03/09 06:41:31;;;;;;;;;;;;;;;;;;4984086;28;19921;-71
2023/03/09 06:43:56;;;;;;;;;;;;;;;;;;4980717;28;19971;-70
2023/03/09 06:46:22;;;;;;;;;;;;;;;;;;4981568;28;20052;-70
2023/03/09 06:48:47;;;;;;;;;;;;;;;;;;4981263;28;20341;-71
2023/03/09 06:51:12;;;;;;;;;;;;;;;;;;4980727;28;20004;-71
2023/03/09 06:53:37;;;;;;;;;;;;;;;;;;4983637;28;19938;-71
2023/03/09 06:56:03;;;;;;;;;;;;;;;;;;4968912;28;20436;-71
2023/03/09 06:58:30;;;;;;;;;;;;;;;;;;4980488;28;20731;-71
2023/03/09 07:00:55;;;;;;;;;;;;;;;;;;4982125;28;19917;-72
2023/03/09 07:03:21;;;;;;;;;;;;;;;;;;4980427;28;19928;-71
2023/03/09 07:05:46;;;;;;;;;;;;;;;;;;4968221;28;19921;-72
2023/03/09 07:08:11;;;;;;;;;;;;;;;;;;4982180;28;19925;-73
2023/03/09 07:10:39;;;;;;;;;;;;;;;;;;4986819;28;19921;-72
2023/03/09 07:13:05;;;;;;;;;;;;;;;;;;4979769;28;19952;-73
2023/03/09 07:15:30;;;;;;;;;;;;;;;;;;4984104;28;20033;-71
2023/03/09 07:17:56;;;;;;;;;;;;;;;;;;4984610;28;19921;-73
2023/03/09 07:20:23;;;;;;;;;;;;;;;;;;4982517;28;20292;-72
2023/03/09 07:22:48;;;;;;;;;;;;;;;;;;4965093;28;19921;-72
2023/03/09 07:25:14;;;;;;;;;;;;;;;;;;4968132;28;19924;-73
2023/03/09 07:27:39;;;;;;;;;;;;;;;;;;4983553;28;20396;-73
2023/03/09 07:30:05;;;;;;;;;;;;;;;;;;4970972;28;20267;-73
2023/03/09 07:32:30;;;;;;;;;;;;;;;;;;4984332;28;20155;-72
2023/03/09 07:34:55;;;;;;;;;;;;;;;;;;4982072;28;20687;-72
2023/03/09 07:37:21;;;;;;;;;;;;;;;;;;4971110;28;19925;-73
2023/03/09 07:39:46;;;;;;;;;;;;;;;;;;4970643;28;20367;-73
2023/03/09 07:42:11;;;;;;;;;;;;;;;;;;4983761;28;20490;-73
2023/03/09 07:44:37;;;;;;;;;;;;;;;;;;4986899;28;19922;-73
2023/03/09 07:47:03;;;;;;;;;;;;;;;;;;4987554;28;20343;-73
2023/03/09 07:49:28;;;;;;;;;;;;;;;;;;4990703;28;19928;-74
2023/03/09 07:51:56;;;;;;;;;;;;;;;;;;4986188;28;19917;-74
2023/03/09 07:54:21;;;;;;;;;;;;;;;;;;4988802;28;19928;-74
2023/03/09 07:56:50;;;;;;;;;;;;;;;;;;4974083;28;20285;-74
2023/03/09 07:59:16;;;;;;;;;;;;;;;;;;4989576;28;20137;-74
2023/03/09 08:01:41;;;;;;;;;;;;;;;;;;4990961;28;20529;-74
2023/03/09 08:04:06;;;;;;;;;;;;;;;;;;4984825;28;19928;-72
2023/03/09 08:06:32;;;;;;;;;;;;;;;;;;4974341;28;20020;-72
2023/03/09 08:08:57;;;;;;;;;;;;;;;;;;4982151;28;19922;-74
2023/03/09 08:11:23;;;;;;;;;;;;;;;;;;4980436;28;19929;-72
2023/03/09 08:13:48;;;;;;;;;;;;;;;;;;4984925;28;19921;-73
2023/03/09 08:16:14;;;;;;;;;;;;;;;;;;4985432;28;20076;-73
2023/03/09 08:18:39;;;;;;;;;;;;;;;;;;4972228;28;20384;-73
2023/03/09 08:21:05;;;;;;;;;;;;;;;;;;4989024;28;20549;-72
2023/03/09 08:23:30;;;;;;;;;;;;;;;;;;4970206;28;20309;-71
2023/03/09 08:25:56;;;;;;;;;;;;;;;;;;4979513;28;19921;-74
2023/03/09 08:28:21;;;;;;;;;;;;;;;;;;4980723;28;20031;-73
2023/03/09 08:30:49;;;;;;;;;;;;;;;;;;4980246;28;20008;-72
2023/03/09 08:33:14;;;;;;;;;;;;;;;;;;4968135;28;20016;-72
2023/03/09 08:35:40;;;;;;;;;;;;;;;;;;4986490;28;19917;-73
2023/03/09 08:38:05;;;;;;;;;;;;;;;;;;4983153;28;20736;-73
2023/03/09 08:40:30;;;;;;;;;;;;;;;;;;5002535;28;19944;-72
2023/03/09 08:42:56;;;;;;;;;;;;;;;;;;4982177;28;19922;-72
2023/03/09 08:45:24;;;;;;;;;;;;;;;;;;4973800;28;22079;-72
2023/03/09 08:47:49;;;;;;;;;;;;;;;;;;4987790;28;20056;-72
2023/03/09 08:50:14;;;;;;;;;;;;;;;;;;4978059;28;20752;-70
2023/03/09 08:52:40;;;;;;;;;;;;;;;;;;4990161;28;19929;-73
2023/03/09 08:55:08;;;;;;;;;;;;;;;;;;4994513;28;19913;-73
2023/03/09 08:57:34;;;;;;;;;;;;;;;;;;4993258;28;20299;-73
2023/03/09 09:00:03;;;;;;;;;;;;;;;;;;4975617;28;20028;-71
2023/03/09 09:02:28;;;;;;;;;;;;;;;;;;4994481;28;19925;-73
2023/03/09 09:04:54;;;;;;;;;;;;;;;;;;4992764;28;20689;-72
2023/03/09 09:07:22;;;;;;;;;;;;;;;;;;4995269;28;19922;-73
2023/03/09 09:09:49;;;;;;;;;;;;;;;;;;4998960;28;19924;-72
2023/03/09 09:12:15;;;;;;;;;;;;;;;;;;4993683;28;19925;-73
2023/03/09 09:14:40;;;;;;;;;;;;;;;;;;4969781;28;19925;-73
2023/03/09 09:17:09;;;;;;;;;;;;;;;;;;4990989;28;19913;-73
2023/03/09 09:19:34;;;;;;;;;;;;;;;;;;4988190;28;20084;-73
2023/03/09 09:21:59;;;;;;;;;;;;;;;;;;4992874;28;20542;-73
2023/03/09 09:24:25;;;;;;;;;;;;;;;;;;4996673;28;19931;-74
2023/03/09 09:26:53;;;;;;;;;;;;;;;;;;4991240;28;19968;-74
2023/03/09 09:29:18;;;;;;;;;;;;;;;;;;4993823;28;20476;-74
2023/03/09 09:31:44;;;;;;;;;;;;;;;;;;4988261;28;20468;-74
2023/03/09 09:34:09;;;;;;;;;;;;;;;;;;4983777;28;19972;-73
2023/03/09 09:36:34;;;;;;;;;;;;;;;;;;4997029;28;20031;-74
2023/03/09 09:39:00;;;;;;;;;;;;;;;;;;4981001;28;19925;-74
2023/03/09 09:41:25;;;;;;;;;;;;;;;;;;5002302;28;20084;-73
2023/03/09 09:43:50;;;;;;;;;;;;;;;;;;4984003;28;19921;-73
2023/03/09 09:46:16;;;;;;;;;;;;;;;;;;4996838;28;20536;-74
2023/03/09 09:48:41;;;;;;;;;;;;;;;;;;4977779;28;20557;-75
2023/03/09 09:51:06;;;;;;;;;;;;;;;;;;4992241;28;19921;-74
2023/03/09 09:53:32;;;;;;;;;;;;;;;;;;4996812;28;19922;-73
2023/03/09 09:55:57;;;;;;;;;;;;;;;;;;4976465;28;19940;-74
2023/03/09 09:58:23;;;;;;;;;;;;;;;;;;5001129;28;19917;-74
2023/03/09 10:00:49;;;;;;;;;;;;;;;;;;5001479;28;19914;-74
2023/03/09 10:03:14;;;;;;;;;;;;;;;;;;5001681;28;20555;-73
2023/03/09 10:05:40;;;;;;;;;;;;;;;;;;5001957;28;20488;-73
2023/03/09 10:08:05;;;;;;;;;;;;;;;;;;5007692;28;20014;-73
2023/03/09 10:10:31;;;;;;;;;;;;;;;;;;4990462;28;19925;-73
2023/03/09 10:12:56;;;;;;;;;;;;;;;;;;4986144;28;19924;-73
2023/03/09 10:15:21;;;;;;;;;;;;;;;;;;5001620;28;20339;-73
2023/03/09 10:17:47;;;;;;;;;;;;;;;;;;4972930;28;19921;-72
2023/03/09 10:20:12;;;;;;;;;;;;;;;;;;5002047;28;19914;-72
2023/03/09 10:22:37;;;;;;;;;;;;;;;;;;4987268;28;20345;-73
2023/03/09 10:25:03;;;;;;;;;;;;;;;;;;4997918;28;19979;-72
2023/03/09 10:27:28;;;;;;;;;;;;;;;;;;4982576;28;19921;-73
2023/03/09 10:29:54;;;;;;;;;;;;;;;;;;5000857;28;19921;-72
2023/03/09 10:32:19;;;;;;;;;;;;;;;;;;4995315;28;20387;-72
2023/03/09 10:34:44;;;;;;;;;;;;;;;;;;4999489;28;19918;-72
2023/03/09 10:37:10;;;;;;;;;;;;;;;;;;4996400;28;19955;-72
2023/03/09 10:39:35;;;;;;;;;;;;;;;;;;4997759;28;19917;-72
2023/03/09 10:42:00;;;;;;;;;;;;;;;;;;4984116;28;19964;-72
2023/03/09 10:44:26;;;;;;;;;;;;;;;;;;4983457;28;19941;-72
2023/03/09 10:46:51;;;;;;;;;;;;;;;;;;4989488;28;19925;-74
2023/03/09 10:49:16;;;;;;;;;;;;;;;;;;4990655;28;20234;-72
2023/03/09 10:51:42;;;;;;;;;;;;;;;;;;4975213;28;19964;-73
2023/03/09 10:54:07;;;;;;;;;;;;;;;;;;4994057;28;20116;-73
2023/03/09 10:56:33;;;;;;;;;;;;;;;;;;4991476;28;19922;-72
2023/03/09 10:58:59;;;;;;;;;;;;;;;;;;4973163;28;20009;-72
2023/03/09 11:01:24;;;;;;;;;;;;;;;;;;4996908;28;19913;-73
2023/03/09 11:03:50;;;;;;;;;;;;;;;;;;4995157;28;20044;-73
2023/03/09 11:06:15;;;;;;;;;;;;;;;;;;4996336;28;20275;-73
2023/03/09 11:08:41;;;;;;;;;;;;;;;;;;4977908;28;20012;-73
2023/03/09 11:11:06;;;;;;;;;;;;;;;;;;4994983;28;20436;-72
2023/03/09 11:13:31;;;;;;;;;;;;;;;;;;5004293;28;19991;-73
2023/03/09 11:15:57;;;;;;;;;;;;;;;;;;5001521;28;20308;-73
2023/03/09 11:18:22;;;;;;;;;;;;;;;;;;4983175;28;19917;-73
2023/03/09 11:20:49;;;;;;;;;;;;;;;;;;4999851;28;20003;-73
2023/03/09 11:23:14;;;;;;;;;;;;;;;;;;4998683;28;19925;-73
2023/03/09 11:25:40;;;;;;;;;;;;;;;;;;4998415;28;19944;-74
2023/03/09 11:28:05;;;;;;;;;;;;;;;;;;4998959;28;19921;-73
2023/03/09 11:30:31;;;;;;;;;;;;;;;;;;4996619;28;19917;-75
2023/03/09 11:32:56;;;;;;;;;;;;;;;;;;4998908;28;19975;-74
2023/03/09 11:35:21;;;;;;;;;;;;;;;;;;4985261;28;19996;-74
2023/03/09 11:37:47;;;;;;;;;;;;;;;;;;4998363;28;19975;-74
2023/03/09 11:40:12;;;;;;;;;;;;;;;;;;4986277;28;20012;-75
2023/03/09 11:42:38;;;;;;;;;;;;;;;;;;5001275;28;19913;-74
2023/03/09 11:45:03;;;;;;;;;;;;;;;;;;4999042;28;19975;-74
2023/03/09 11:47:30;;;;;;;;;;;;;;;;;;5002657;28;20526;-74
2023/03/09 11:49:55;;;;;;;;;;;;;;;;;;4998252;28;20369;-75
2023/03/09 11:52:21;;;;;;;;;;;;;;;;;;4998693;28;19923;-74
2023/03/09 11:54:46;;;;;;;;;;;;;;;;;;5000113;28;19924;-74
2023/03/09 11:57:11;;;;;;;;;;;;;;;;;;5000965;28;19957;-73
2023/03/09 11:59:37;;;;;;;;;;;;;;;;;;4986938;28;19913;-73
2023/03/09 12:02:02;;;;;;;;;;;;;;;;;;4986504;28;20016;-73
2023/03/09 12:04:27;;;;;;;;;;;;;;;;;;5002908;28;19929;-73
2023/03/09 12:06:53;;;;;;;;;;;;;;;;;;5002054;28;20261;-73
2023/03/09 12:09:18;;;;;;;;;;;;;;;;;;4999160;28;20079;-73
2023/03/09 12:11:43;;;;;;;;;;;;;;;;;;5000431;28;20365;-72
2023/03/09 12:14:08;;;;;;;;;;;;;;;;;;5000923;28;19927;-73
2023/03/09 12:16:34;;;;;;;;;;;;;;;;;;5001847;28;19917;-73
2023/03/09 12:18:59;;;;;;;;;;;;;;;;;;5000827;28;19947;-73
2023/03/09 12:21:24;;;;;;;;;;;;;;;;;;5011248;28;19957;-75
2023/03/09 12:23:50;;;;;;;;;;;;;;;;;;5004905;28;19933;-74
2023/03/09 12:29:03;;;;;;;;;;;;;;;;;;5009086;28;19964;-74
2023/03/09 12:31:29;;;;;;;;;;;;;;;;;;5009791;28;19921;-74
2023/03/09 12:33:56;;;;;;;;;;;;;;;;;;5004039;28;20006;-73
2023/03/09 12:36:21;;;;;;;;;;;;;;;;;;4988006;28;19976;-75
2023/03/09 12:38:46;;;;;;;;;;;;;;;;;;5002094;28;19957;-74
2023/03/09 12:41:13;;;;;;;;;;;;;;;;;;4987821;28;19967;-74
2023/03/09 12:43:38;;;;;;;;;;;;;;;;;;5003253;28;20371;-73
2023/03/09 12:46:04;;;;;;;;;;;;;;;;;;4984560;28;19918;-74
2023/03/09 12:48:39;;;;;;;;;;;;;;;;;;5007048;28;19917;-74
2023/03/09 12:51:04;;;;;;;;;;;;;;;;;;5002570;28;19917;-73
2023/03/09 12:53:34;;;;;;;;;;;;;;;;;;5002670;28;20330;-73
2023/03/09 12:55:59;;;;;;;;;;;;;;;;;;5008615;28;19944;-74
2023/03/09 12:58:24;;;;;;;;;;;;;;;;;;5007588;28;20004;-74
2023/03/09 13:00:50;;;;;;;;;;;;;;;;;;5005113;28;20288;-73
2023/03/09 13:03:15;;;;;;;;;;;;;;;;;;5000713;28;20555;-73
2023/03/09 13:05:40;;;;;;;;;;;;;;;;;;4997776;28;19956;-73
2023/03/09 13:08:06;;;;;;;;;;;;;;;;;;5002961;28;20127;-73
2023/03/09 13:10:31;;;;;;;;;;;;;;;;;;4986112;28;19917;-73
2023/03/09 13:12:56;;;;;;;;;;;;;;;;;;4983435;28;19925;-73
2023/03/09 13:15:22;;;;;;;;;;;;;;;;;;4994900;28;19918;-73
2023/03/09 13:17:47;;;;;;;;;;;;;;;;;;4980958;28;19921;-73
2023/03/09 13:20:13;;;;;;;;;;;;;;;;;;4996132;28;20024;-72
2023/03/09 13:22:38;;;;;;;;;;;;;;;;;;5004215;28;19913;-73
2023/03/09 13:25:03;;;;;;;;;;;;;;;;;;4995338;28;19971;-72
2023/03/09 13:27:28;;;;;;;;;;;;;;;;;;4973546;28;19933;-72
2023/03/09 13:29:54;;;;;;;;;;;;;;;;;;4974838;28;19970;-73
2023/03/09 13:32:19;;;;;;;;;;;;;;;;;;4976942;28;19930;-72
2023/03/09 13:34:45;;;;;;;;;;;;;;;;;;4971692;28;20016;-72
2023/03/09 13:37:10;;;;;;;;;;;;;;;;;;4971828;28;20292;-72
2023/03/09 13:39:36;;;;;;;;;;;;;;;;;;4993374;28;20160;-73
2023/03/09 13:42:04;;;;;;;;;;;;;;;;;;4991889;28;19920;-72
2023/03/09 13:44:29;;;;;;;;;;;;;;;;;;4977815;28;20656;-73
2023/03/09 13:46:55;;;;;;;;;;;;;;;;;;4992424;28;19979;-73
2023/03/09 13:49:20;;;;;;;;;;;;;;;;;;4975782;28;20007;-72
2023/03/09 13:51:48;;;;;;;;;;;;;;;;;;4990842;28;20272;-72
2023/03/09 13:54:14;;;;;;;;;;;;;;;;;;4984500;28;20549;-72
2023/03/09 13:56:39;;;;;;;;;;;;;;;;;;4990073;28;19920;-73
2023/03/09 13:59:04;;;;;;;;;;;;;;;;;;4989935;28;19927;-72
2023/03/09 14:01:30;;;;;;;;;;;;;;;;;;4985331;28;19921;-72
2023/03/09 14:03:55;;;;;;;;;;;;;;;;;;4965637;28;19929;-72
2023/03/09 14:06:20;;;;;;;;;;;;;;;;;;4972254;28;20478;-72
2023/03/09 14:08:49;;;;;;;;;;;;;;;;;;4981136;28;20647;-72
2023/03/09 14:11:15;;;;;;;;;;;;;;;;;;4982219;28;19918;-72
2023/03/09 14:13:40;;;;;;;;;;;;;;;;;;4969152;28;20763;-73
2023/03/09 14:16:09;;;;;;;;;;;;;;;;;;4986337;28;20305;-72
2023/03/09 14:18:34;;;;;;;;;;;;;;;;;;4970451;28;20726;-71
2023/03/09 14:20:59;;;;;;;;;;;;;;;;;;4986878;28;19918;-73
2023/03/09 14:23:25;;;;;;;;;;;;;;;;;;4987247;28;20195;-73
2023/03/09 14:25:50;;;;;;;;;;;;;;;;;;4984020;28;20334;-72
2023/03/09 14:28:16;;;;;;;;;;;;;;;;;;4984186;28;19921;-72
2023/03/09 14:30:41;;;;;;;;;;;;;;;;;;4984483;28;19932;-73
2023/03/09 14:33:07;;;;;;;;;;;;;;;;;;4964479;28;19933;-72
2023/03/09 14:35:34;;;;;;;;;;;;;;;;;;4979579;28;19921;-72
2023/03/09 14:37:59;;;;;;;;;;;;;;;;;;4990981;28;20346;-73
2023/03/09 14:40:25;;;;;;;;;;;;;;;;;;4960045;28;19914;-72
2023/03/09 14:42:50;;;;;;;;;;;;;;;;;;4986184;28;19923;-71
2023/03/09 14:45:15;;;;;;;;;;;;;;;;;;4982112;28;19921;-73
2023/03/09 14:47:44;;;;;;;;;;;;;;;;;;4988898;28;20359;-74
2023/03/09 14:50:12;;;;;;;;;;;;;;;;;;4990887;28;19917;-74
2023/03/09 14:52:37;;;;;;;;;;;;;;;;;;4986963;28;20432;-73
2023/03/09 14:55:02;;;;;;;;;;;;;;;;;;4987854;28;19925;-73
2023/03/09 14:57:28;;;;;;;;;;;;;;;;;;4991734;28;20341;-73
2023/03/09 14:59:53;;;;;;;;;;;;;;;;;;4968073;28;19932;-73
2023/03/09 15:02:18;;;;;;;;;;;;;;;;;;4975600;28;19917;-74
2023/03/09 15:04:46;;;;;;;;;;;;;;;;;;4963718;28;20413;-70
2023/03/09 15:07:11;;;;;;;;;;;;;;;;;;4976960;28;20423;-69
2023/03/09 15:09:37;;;;;;;;;;;;;;;;;;4976294;28;20016;-73
2023/03/09 15:12:04;;;;;;;;;;;;;;;;;;4973752;28;19929;-73
2023/03/09 15:14:29;;;;;;;;;;;;;;;;;;4954336;28;19940;-72
2023/03/09 15:16:54;;;;;;;;;;;;;;;;;;4962681;28;20388;-76
2023/03/09 15:19:20;;;;;;;;;;;;;;;;;;4965187;28;19917;-72
2023/03/09 15:21:45;;;;;;;;;;;;;;;;;;4978629;28;20091;-70
2023/03/09 15:24:10;;;;;;;;;;;;;;;;;;4972839;28;20460;-71
2023/03/09 15:26:36;;;;;;;;;;;;;;;;;;4979110;28;19922;-70
2023/03/09 15:29:03;;;;;;;;;;;;;;;;;;4971565;28;19928;-71
2023/03/09 15:31:28;;;;;;;;;;;;;;;;;;4977733;28;19929;-71
2023/03/09 15:33:53;;;;;;;;;;;;;;;;;;4954795;28;19918;-70
2023/03/09 15:36:20;;;;;;;;;;;;;;;;;;4975178;28;20520;-70
2023/03/09 15:38:47;;;;;;;;;;;;;;;;;;4978367;28;20251;-71
2023/03/09 15:41:13;;;;;;;;;;;;;;;;;;4972195;28;20056;-70
2023/03/09 15:43:38;;;;;;;;;;;;;;;;;;4970173;28;19931;-70
2023/03/09 15:46:03;;;;;;;;;;;;;;;;;;4971808;28;19921;-70
2023/03/09 15:48:29;;;;;;;;;;;;;;;;;;4971393;28;20001;-71
2023/03/09 15:50:54;;;;;;;;;;;;;;;;;;4963006;28;19928;-71
2023/03/09 15:53:22;;;;;;;;;;;;;;;;;;4960168;28;20035;-69
2023/03/09 15:55:47;;;;;;;;;;;;;;;;;;4974995;28;20495;-69
2023/03/09 15:58:13;;;;;;;;;;;;;;;;;;4974291;28;20052;-70
2023/03/09 16:00:38;;;;;;;;;;;;;;;;;;4975808;28;19972;-71
2023/03/09 16:03:04;;;;;;;;;;;;;;;;;;4963263;28;19977;-73
2023/03/09 16:05:29;;;;;;;;;;;;;;;;;;4966535;28;20621;-71
2023/03/09 16:07:54;;;;;;;;;;;;;;;;;;4964090;28;19922;-70
2023/03/09 16:10:22;;;;;;;;;;;;;;;;;;4980013;28;19945;-70
2023/03/09 16:12:48;;;;;;;;;;;;;;;;;;4979110;28;20043;-69
2023/03/09 16:15:16;;;;;;;;;;;;;;;;;;4964427;28;19924;-69
2023/03/09 16:17:42;;;;;;;;;;;;;;;;;;4975340;28;19971;-69
2023/03/09 16:20:14;;;;;;;;;;;;;;;;;;4977620;28;20328;-69
2023/03/09 16:22:42;;;;;;;;;;;;;;;;;;4958409;28;19985;-69
2023/03/09 16:25:10;;;;;;;;;;;;;;;;;;4979451;28;19922;-69
2023/03/09 16:27:36;;;;;;;;;;;;;;;;;;4980013;28;19921;-69
2023/03/09 16:30:04;;;;;;;;;;;;;;;;;;4974897;28;20550;-69
2023/03/09 16:32:29;;;;;;;;;;;;;;;;;;4976507;28;19929;-69
2023/03/09 16:34:55;;;;;;;;;;;;;;;;;;4980293;28;20029;-70
2023/03/09 16:37:20;;;;;;;;;;;;;;;;;;4977359;28;20143;-70
2023/03/09 16:39:48;;;;;;;;;;;;;;;;;;4951693;28;20551;-70
2023/03/09 16:42:14;;;;;;;;;;;;;;;;;;4954404;28;19917;-70
2023/03/09 16:44:39;;;;;;;;;;;;;;;;;;4970470;28;20052;-70